createdAt,value
2017-05-24T00:00:13.218Z,29.5
2017-05-24T00:01:13.212Z,29.5
2017-05-24T00:02:12.200Z,29.5
2017-05-24T00:03:13.491Z,29.5
2017-05-24T00:04:13.547Z,29.5
2017-05-24T00:05:13.446Z,29.5
2017-05-24T00:06:13.459Z,29.5
2017-05-24T00:07:13.516Z,29.5
2017-05-24T00:08:12.612Z,29.5
2017-05-24T00:09:13.861Z,29.5
2017-05-24T00:10:13.657Z,29.5
2017-05-24T00:11:13.834Z,29.5
2017-05-24T00:12:13.830Z,29.5
2017-05-24T00:13:12.852Z,29.5
2017-05-24T00:14:12.780Z,29.5
2017-05-24T00:15:13.120Z,29.5
2017-05-24T00:16:12.916Z,29.5
2017-05-24T00:17:14.056Z,29.5
2017-05-24T00:18:13.090Z,29.5
2017-05-24T00:19:13.185Z,29.5
2017-05-24T00:20:14.322Z,29.5
2017-05-24T00:21:14.546Z,29.5
2017-05-24T00:22:13.397Z,29.5
2017-05-24T00:23:13.342Z,29.5
2017-05-24T00:24:13.451Z,29.5
2017-05-24T00:25:14.524Z,29.5
2017-05-24T00:26:13.569Z,29.5
2017-05-24T00:27:14.805Z,29.5
2017-05-24T00:28:14.642Z,29.5
2017-05-24T00:29:14.680Z,29.5
2017-05-24T00:30:13.728Z,29.5
2017-05-24T00:31:13.654Z,29.5
2017-05-24T00:32:13.833Z,29.5
2017-05-24T00:33:14.010Z,29.5
2017-05-24T00:34:13.997Z,29.5
2017-05-24T00:35:14.085Z,29.5
2017-05-24T00:36:14.011Z,29.5
2017-05-24T00:37:15.180Z,29.5
2017-05-24T00:38:15.186Z,29.5
2017-05-24T00:39:15.574Z,29.5
2017-05-24T00:40:15.278Z,29.5
2017-05-24T00:41:14.347Z,29.5
2017-05-24T00:42:15.324Z,29.5
2017-05-24T00:43:15.370Z,29.5
2017-05-24T00:44:15.534Z,29.5
2017-05-24T00:45:15.715Z,29.5
2017-05-24T00:46:15.695Z,29.5
2017-05-24T00:47:15.791Z,29.5
2017-05-24T00:48:15.865Z,29.5
2017-05-24T00:49:14.884Z,29.5
2017-05-24T00:50:16.040Z,29.5
2017-05-24T00:51:16.266Z,29.5
2017-05-24T00:52:15.148Z,29.5
2017-05-24T00:53:15.115Z,29.5
2017-05-24T00:54:15.253Z,29.5
2017-05-24T00:55:16.305Z,29.5
2017-05-24T00:56:15.346Z,29.5
2017-05-24T00:57:16.511Z,29.5
2017-05-24T00:58:16.442Z,29.5
2017-05-24T00:59:15.451Z,29.5
2017-05-24T01:00:16.603Z,29.5
2017-05-24T01:01:15.532Z,29.5
2017-05-24T01:02:15.538Z,29.5
2017-05-24T01:03:16.910Z,29.6
2017-05-24T01:04:20.871Z,29.6
2017-05-24T01:05:15.711Z,29.6
2017-05-24T01:06:16.857Z,29.6
2017-05-24T01:07:15.804Z,29.5
2017-05-24T01:08:15.811Z,29.5
2017-05-24T01:09:16.073Z,29.5
2017-05-24T01:10:16.965Z,29.5
2017-05-24T01:11:17.098Z,29.5
2017-05-24T01:12:17.152Z,29.5
2017-05-24T01:13:16.172Z,29.5
2017-05-24T01:14:16.177Z,29.5
2017-05-24T01:15:17.406Z,29.5
2017-05-24T01:16:17.410Z,29.5
2017-05-24T01:17:16.372Z,29.5
2017-05-24T01:18:17.476Z,29.5
2017-05-24T01:19:17.599Z,29.5
2017-05-24T01:20:17.347Z,29.6
2017-05-24T01:21:17.690Z,29.6
2017-05-24T01:22:16.634Z,29.6
2017-05-24T01:23:16.689Z,29.5
2017-05-24T01:24:16.838Z,29.5
2017-05-24T01:25:17.913Z,29.5
2017-05-24T01:26:18.177Z,29.5
2017-05-24T01:27:17.021Z,29.5
2017-05-24T01:28:18.103Z,29.5
2017-05-24T01:29:16.976Z,29.5
2017-05-24T01:30:17.079Z,29.5
2017-05-24T01:31:18.119Z,29.5
2017-05-24T01:32:17.343Z,29.6
2017-05-24T01:33:38.816Z,29.5
2017-05-24T01:34:39.948Z,29.5
2017-05-24T01:35:40.017Z,29.5
2017-05-24T01:36:40.086Z,29.5
2017-05-24T01:37:40.325Z,29.6
2017-05-24T01:38:39.063Z,29.5
2017-05-24T01:39:39.069Z,29.5
2017-05-24T01:40:39.164Z,29.5
2017-05-24T01:41:39.251Z,29.5
2017-05-24T01:42:39.157Z,29.5
2017-05-24T01:43:39.573Z,29.5
2017-05-24T01:44:40.381Z,29.5
2017-05-24T01:45:40.404Z,29.5
2017-05-24T01:46:40.464Z,29.5
2017-05-24T01:47:40.625Z,29.6
2017-05-24T01:48:40.549Z,29.6
2017-05-24T01:49:40.792Z,29.5
2017-05-24T01:50:39.731Z,29.5
2017-05-24T01:51:39.766Z,29.5
2017-05-24T01:52:39.869Z,29.5
2017-05-24T01:53:39.894Z,29.5
2017-05-24T01:54:39.792Z,29.5
2017-05-24T01:55:40.156Z,29.5
2017-05-24T01:56:41.026Z,29.5
2017-05-24T01:57:40.070Z,29.5
2017-05-24T01:58:41.044Z,29.5
2017-05-24T01:59:40.085Z,29.5
2017-05-24T02:00:41.143Z,29.5
2017-05-24T02:01:41.345Z,29.5
2017-05-24T02:02:41.258Z,29.5
2017-05-24T02:03:41.351Z,29.5
2017-05-24T02:04:41.392Z,29.5
2017-05-24T02:05:40.325Z,29.5
2017-05-24T02:06:40.572Z,29.6
2017-05-24T02:07:41.536Z,29.5
2017-05-24T02:08:41.642Z,29.5
2017-05-24T02:09:41.664Z,29.6
2017-05-24T02:10:40.673Z,29.5
2017-05-24T02:11:41.795Z,29.5
2017-05-24T02:12:40.974Z,29.5
2017-05-24T02:13:41.922Z,29.5
2017-05-24T02:14:40.839Z,29.5
2017-05-24T02:15:40.956Z,29.5
2017-05-24T02:16:40.972Z,29.5
2017-05-24T02:17:40.990Z,29.5
2017-05-24T02:18:42.311Z,29.5
2017-05-24T02:19:42.160Z,29.5
2017-05-24T02:20:42.272Z,29.5
2017-05-24T02:21:42.282Z,29.5
2017-05-24T02:22:41.326Z,29.5
2017-05-24T02:23:42.470Z,29.5
2017-05-24T02:24:42.754Z,29.5
2017-05-24T02:25:41.496Z,29.5
2017-05-24T02:26:42.636Z,29.6
2017-05-24T02:27:42.681Z,29.6
2017-05-24T02:28:42.785Z,29.6
2017-05-24T02:29:41.699Z,29.6
2017-05-24T02:30:43.038Z,29.6
2017-05-24T02:31:42.931Z,29.6
2017-05-24T02:32:42.946Z,29.6
2017-05-24T02:33:42.955Z,29.6
2017-05-24T02:34:42.953Z,29.6
2017-05-24T02:35:41.913Z,29.6
2017-05-24T02:36:42.200Z,29.6
2017-05-24T02:37:41.993Z,29.5
2017-05-24T02:38:43.155Z,29.6
2017-05-24T02:39:42.194Z,29.5
2017-05-24T02:40:42.224Z,29.5
2017-05-24T02:41:42.251Z,29.5
2017-05-24T02:42:43.608Z,29.5
2017-05-24T02:43:43.417Z,29.5
2017-05-24T02:44:43.487Z,29.6
2017-05-24T02:45:43.486Z,29.6
2017-05-24T02:46:42.410Z,29.6
2017-05-24T02:47:43.604Z,29.6
2017-05-24T02:48:42.878Z,29.6
2017-05-24T02:49:42.781Z,29.5
2017-05-24T02:50:43.763Z,29.6
2017-05-24T02:51:42.737Z,29.6
2017-05-24T02:52:42.827Z,29.6
2017-05-24T02:53:43.981Z,29.6
2017-05-24T02:54:44.204Z,29.6
2017-05-24T02:55:42.962Z,29.6
2017-05-24T02:56:44.185Z,29.5
2017-05-24T02:57:43.024Z,29.5
2017-05-24T02:58:44.178Z,29.5
2017-05-24T02:59:43.213Z,29.5
2017-05-24T03:00:44.506Z,29.6
2017-05-24T03:01:43.274Z,29.5
2017-05-24T03:02:44.356Z,29.6
2017-05-24T03:03:44.438Z,29.6
2017-05-24T03:04:44.461Z,29.6
2017-05-24T03:05:43.401Z,29.6
2017-05-24T03:06:43.709Z,29.6
2017-05-24T03:07:44.671Z,29.6
2017-05-24T03:08:44.036Z,29.6
2017-05-24T03:09:44.707Z,29.6
2017-05-24T03:10:44.778Z,29.6
2017-05-24T03:11:44.842Z,29.5
2017-05-24T03:12:45.036Z,29.5
2017-05-24T03:13:43.892Z,29.5
2017-05-24T03:14:43.848Z,29.6
2017-05-24T03:15:43.853Z,29.5
2017-05-24T03:16:43.987Z,29.5
2017-05-24T03:17:45.056Z,29.5
2017-05-24T03:18:44.280Z,29.6
2017-05-24T03:19:45.236Z,29.5
2017-05-24T03:20:44.261Z,29.5
2017-05-24T03:21:44.169Z,29.6
2017-05-24T03:22:44.340Z,29.6
2017-05-24T03:23:44.376Z,29.5
2017-05-24T03:24:44.478Z,29.5
2017-05-24T03:25:45.380Z,29.5
2017-05-24T03:26:44.326Z,29.5
2017-05-24T03:27:44.462Z,29.6
2017-05-24T03:28:44.414Z,29.6
2017-05-24T03:29:45.601Z,29.6
2017-05-24T03:30:44.704Z,29.6
2017-05-24T03:31:44.650Z,29.6
2017-05-24T03:32:44.667Z,29.6
2017-05-24T03:33:45.689Z,29.6
2017-05-24T03:34:45.754Z,29.6
2017-05-24T03:35:45.817Z,29.6
2017-05-24T03:36:44.904Z,29.5
2017-05-24T03:37:44.790Z,29.5
2017-05-24T03:38:45.971Z,29.6
2017-05-24T03:39:46.002Z,29.6
2017-05-24T03:40:45.972Z,29.6
2017-05-24T03:41:46.059Z,29.6
2017-05-24T03:42:46.284Z,29.6
2017-05-24T03:43:44.971Z,29.6
2017-05-24T03:44:45.008Z,29.6
2017-05-24T03:45:45.130Z,29.6
2017-05-24T03:46:45.112Z,29.6
2017-05-24T03:47:45.303Z,29.6
2017-05-24T03:48:46.558Z,29.6
2017-05-24T03:49:45.393Z,29.5
2017-05-24T03:50:46.541Z,29.5
2017-05-24T03:51:46.585Z,29.5
2017-05-24T03:52:46.550Z,29.6
2017-05-24T03:53:45.525Z,29.6
2017-05-24T03:54:45.754Z,29.6
2017-05-24T03:55:46.729Z,29.5
2017-05-24T03:56:45.628Z,29.5
2017-05-24T03:57:45.784Z,29.5
2017-05-24T03:58:46.975Z,29.5
2017-05-24T03:59:46.915Z,29.5
2017-05-24T04:00:47.217Z,29.5
2017-05-24T04:01:46.056Z,29.5
2017-05-24T04:02:46.044Z,29.5
2017-05-24T04:03:46.241Z,29.5
2017-05-24T04:04:47.363Z,29.5
2017-05-24T04:05:46.411Z,29.5
2017-05-24T04:06:47.782Z,29.5
2017-05-24T04:07:47.509Z,29.5
2017-05-24T04:08:47.633Z,29.5
2017-05-24T04:09:46.679Z,29.5
2017-05-24T04:10:46.577Z,29.5
2017-05-24T04:11:47.818Z,29.5
2017-05-24T04:12:48.003Z,29.5
2017-05-24T04:13:46.839Z,29.5
2017-05-24T04:14:47.970Z,29.5
2017-05-24T04:15:46.883Z,29.5
2017-05-24T04:16:48.110Z,29.5
2017-05-24T04:17:47.075Z,29.5
2017-05-24T04:18:47.282Z,29.5
2017-05-24T04:19:48.231Z,29.5
2017-05-24T04:20:47.150Z,29.5
2017-05-24T04:21:48.239Z,29.5
2017-05-24T04:22:47.309Z,29.5
2017-05-24T04:23:47.300Z,29.5
2017-05-24T04:24:48.614Z,29.5
2017-05-24T04:25:47.359Z,29.5
2017-05-24T04:26:47.405Z,29.5
2017-05-24T04:27:47.487Z,29.5
2017-05-24T04:28:47.555Z,29.5
2017-05-24T04:29:48.694Z,29.4
2017-05-24T04:30:48.947Z,29.4
2017-05-24T04:31:48.843Z,29.3
2017-05-24T04:32:47.873Z,28.6
2017-05-24T04:33:48.918Z,28.2
2017-05-24T04:34:47.841Z,28
2017-05-24T04:35:49.017Z,28.2
2017-05-24T04:36:48.242Z,28.5
2017-05-24T04:37:47.971Z,28.7
2017-05-24T04:38:49.185Z,28.9
2017-05-24T04:39:49.168Z,28.9
2017-05-24T04:40:48.073Z,29
2017-05-24T04:41:49.328Z,29.1
2017-05-24T04:42:48.380Z,29.1
2017-05-24T04:43:49.390Z,29.2
2017-05-24T04:44:48.405Z,29.2
2017-05-24T04:45:48.555Z,29.1
2017-05-24T04:46:49.551Z,29.2
2017-05-24T04:47:48.653Z,29.3
2017-05-24T04:48:48.998Z,29.4
2017-05-24T04:49:50.071Z,29.4
2017-05-24T04:50:49.757Z,29.3
2017-05-24T04:51:48.727Z,29.3
2017-05-24T04:52:48.789Z,29.2
2017-05-24T04:53:48.836Z,29.2
2017-05-24T04:54:50.311Z,29.1
2017-05-24T04:55:49.077Z,29.2
2017-05-24T04:56:49.152Z,29.2
2017-05-24T04:57:49.087Z,29.3
2017-05-24T04:58:50.287Z,29.4
2017-05-24T04:59:50.303Z,29.3
2017-05-24T05:00:49.428Z,29.5
2017-05-24T05:01:49.364Z,29.7
2017-05-24T05:02:50.454Z,29.7
2017-05-24T05:03:50.549Z,29.4
2017-05-24T05:04:49.507Z,29.7
2017-05-24T05:05:49.583Z,29.7
2017-05-24T05:06:49.793Z,29.7
2017-05-24T05:07:50.612Z,29.6
2017-05-24T05:08:50.800Z,29.7
2017-05-24T05:09:49.811Z,29.8
2017-05-24T05:10:50.772Z,29.9
2017-05-24T05:11:49.786Z,29.7
2017-05-24T05:12:50.122Z,29.7
2017-05-24T05:13:51.066Z,29.7
2017-05-24T05:14:51.098Z,29.8
2017-05-24T05:15:51.041Z,29.8
2017-05-24T05:16:50.158Z,29.9
2017-05-24T05:17:51.196Z,29.8
2017-05-24T05:18:51.366Z,29.7
2017-05-24T05:19:50.260Z,29.8
2017-05-24T05:20:51.323Z,29.7
2017-05-24T05:21:51.247Z,29.7
2017-05-24T05:22:50.295Z,29.7
2017-05-24T05:23:51.411Z,29.6
2017-05-24T05:24:51.677Z,29.6
2017-05-24T05:25:50.449Z,29.4
2017-05-24T05:26:50.479Z,29.4
2017-05-24T05:27:51.683Z,29.3
2017-05-24T05:28:50.584Z,29.3
2017-05-24T05:29:51.681Z,29.4
2017-05-24T05:30:52.029Z,29.5
2017-05-24T05:31:51.785Z,29.7
2017-05-24T05:32:51.821Z,29.8
2017-05-24T05:33:51.808Z,29.9
2017-05-24T05:34:51.823Z,29.9
2017-05-24T05:35:51.007Z,29.9
2017-05-24T05:36:51.140Z,29.9
2017-05-24T05:37:51.372Z,29.8
2017-05-24T05:38:52.071Z,29.8
2017-05-24T05:39:52.152Z,29.6
2017-05-24T05:40:51.125Z,29.5
2017-05-24T05:41:51.158Z,29.5
2017-05-24T05:42:52.563Z,29.4
2017-05-24T05:43:51.357Z,29.5
2017-05-24T05:44:51.322Z,29.5
2017-05-24T05:45:51.395Z,29.6
2017-05-24T05:46:51.366Z,29.7
2017-05-24T05:47:51.545Z,29.8
2017-05-24T05:48:51.454Z,29.9
2017-05-24T05:49:51.574Z,30
2017-05-24T05:50:52.721Z,30
2017-05-24T05:51:51.818Z,30.1
2017-05-24T05:52:51.822Z,30.2
2017-05-24T05:53:52.780Z,30.3
2017-05-24T05:54:52.794Z,30.3
2017-05-24T05:55:52.887Z,30.3
2017-05-24T05:56:52.825Z,30.3
2017-05-24T05:57:51.939Z,30.3
2017-05-24T05:58:53.057Z,30.3
2017-05-24T05:59:53.051Z,30.4
2017-05-24T06:00:53.228Z,30.4
2017-05-24T06:01:53.084Z,30.3
2017-05-24T06:02:53.240Z,30.3
2017-05-24T06:03:53.330Z,30.4
2017-05-24T06:04:53.416Z,30.4
2017-05-24T06:05:52.262Z,30.5
2017-05-24T06:06:52.383Z,30.5
2017-05-24T06:07:53.435Z,30.6
2017-05-24T06:08:52.550Z,30.6
2017-05-24T06:09:53.615Z,30.6
2017-05-24T06:10:53.713Z,30.7
2017-05-24T06:11:53.748Z,30.7
2017-05-24T06:12:53.791Z,30.8
2017-05-24T06:13:53.803Z,30.8
2017-05-24T06:14:53.849Z,30.9
2017-05-24T06:15:54.500Z,30.9
2017-05-24T06:16:52.961Z,30.9
2017-05-24T06:17:54.053Z,31
2017-05-24T06:18:54.806Z,31
2017-05-24T06:19:53.165Z,31
2017-05-24T06:20:54.199Z,31.1
2017-05-24T06:21:54.726Z,31.1
2017-05-24T06:22:53.925Z,31.2
2017-05-24T06:23:54.948Z,31.3
2017-05-24T06:24:53.412Z,31.3
2017-05-24T06:25:53.365Z,31.3
2017-05-24T06:26:53.687Z,31.4
2017-05-24T06:27:53.631Z,31.5
2017-05-24T06:28:54.724Z,31.6
2017-05-24T06:29:54.287Z,31.6
2017-05-24T06:30:54.970Z,31.7
2017-05-24T06:31:54.309Z,31.7
2017-05-24T06:32:54.852Z,31.8
2017-05-24T06:33:54.408Z,31.8
2017-05-24T06:34:55.475Z,31.8
2017-05-24T06:35:55.480Z,31.8
2017-05-24T06:36:54.021Z,31.9
2017-05-24T06:37:53.969Z,31.9
2017-05-24T06:38:54.178Z,31.9
2017-05-24T06:39:56.244Z,31.9
2017-05-24T06:40:55.322Z,31.9
2017-05-24T06:41:54.374Z,31.9
2017-05-24T06:42:56.209Z,31.8
2017-05-24T06:43:54.564Z,31.7
2017-05-24T06:44:55.612Z,31.7
2017-05-24T06:45:56.908Z,31.7
2017-05-24T06:46:56.139Z,31.7
2017-05-24T06:47:55.312Z,31.8
2017-05-24T06:48:56.137Z,31.9
2017-05-24T06:49:55.755Z,31.9
2017-05-24T06:50:56.601Z,31.9
2017-05-24T06:51:56.022Z,31.9
2017-05-24T06:52:55.594Z,31.9
2017-05-24T06:53:54.983Z,31.9
2017-05-24T06:54:56.153Z,31.9
2017-05-24T06:55:55.075Z,31.9
2017-05-24T06:56:55.246Z,31.9
2017-05-24T06:57:58.013Z,32
2017-05-24T06:58:55.982Z,32
2017-05-24T06:59:56.413Z,32.1
2017-05-24T07:00:56.393Z,32.1
2017-05-24T07:01:57.074Z,32
2017-05-24T07:02:55.444Z,32.1
2017-05-24T07:03:55.945Z,32.1
2017-05-24T07:04:57.503Z,32
2017-05-24T07:05:56.536Z,32
2017-05-24T07:07:00.969Z,32
2017-05-24T07:07:56.634Z,31.9
2017-05-24T07:08:55.796Z,31.8
2017-05-24T07:09:56.807Z,31.8
2017-05-24T07:10:56.872Z,31.8
2017-05-24T07:11:56.852Z,31.8
2017-05-24T07:12:57.673Z,31.7
2017-05-24T07:13:55.904Z,31.6
2017-05-24T07:14:57.072Z,31.7
2017-05-24T07:15:57.056Z,31.6
2017-05-24T07:16:58.222Z,31.6
2017-05-24T07:17:56.140Z,31.5
2017-05-24T07:18:57.166Z,31.5
2017-05-24T07:19:57.249Z,31.4
2017-05-24T07:20:56.242Z,31.4
2017-05-24T07:21:58.042Z,31.4
2017-05-24T07:22:57.363Z,31.4
2017-05-24T07:23:58.392Z,31.4
2017-05-24T07:24:58.404Z,31.5
2017-05-24T07:25:56.504Z,31.5
2017-05-24T07:26:58.583Z,31.4
2017-05-24T07:27:58.613Z,31.5
2017-05-24T07:28:57.684Z,31.5
2017-05-24T07:33:27.932Z,31.3
2017-05-24T07:34:28.900Z,31.2
2017-05-24T07:35:28.000Z,31.2
2017-05-24T07:36:28.864Z,31.1
2017-05-24T07:37:28.343Z,31.2
2017-05-24T07:38:29.656Z,31.2
2017-05-24T07:39:28.437Z,31.1
2017-05-24T07:40:28.557Z,31.1
2017-05-24T07:41:28.750Z,31.1
2017-05-24T07:42:28.088Z,31.1
2017-05-24T07:43:30.761Z,31
2017-05-24T07:44:28.329Z,30.8
2017-05-24T07:45:29.366Z,30.7
2017-05-24T07:46:28.243Z,30.7
2017-05-24T07:47:29.813Z,30.5
2017-05-24T07:48:30.297Z,30.4
2017-05-24T07:49:29.183Z,30.2
2017-05-24T07:50:31.073Z,30.2
2017-05-24T07:51:29.457Z,30.3
2017-05-24T07:52:30.438Z,30.2
2017-05-24T07:53:29.884Z,30.2
2017-05-24T07:54:29.948Z,30.1
2017-05-24T07:55:29.633Z,30.1
2017-05-24T07:56:29.035Z,30.2
2017-05-24T07:57:32.064Z,30.1
2017-05-24T07:58:28.953Z,30
2017-05-24T07:59:28.388Z,30
2017-05-24T08:00:30.003Z,30
2017-05-24T08:01:30.210Z,29.8
2017-05-24T08:02:30.889Z,29.5
2017-05-24T08:03:28.537Z,29.5
2017-05-24T08:04:31.535Z,29.6
2017-05-24T08:05:30.494Z,29.8
2017-05-24T08:06:30.826Z,29.9
2017-05-24T08:07:33.942Z,29.9
2017-05-24T08:08:32.527Z,29.8
2017-05-24T08:09:32.246Z,29.7
2017-05-24T08:10:38.502Z,29.7
2017-05-24T08:11:33.273Z,29.7
2017-05-24T08:12:36.078Z,29.8
2017-05-24T08:13:33.149Z,29.8
2017-05-24T08:14:35.905Z,29.9
2017-05-24T08:15:34.755Z,29.8
2017-05-24T08:16:42.788Z,29.8
2017-05-24T08:17:32.216Z,29.8
2017-05-24T08:18:33.265Z,29.8
2017-05-24T08:19:32.526Z,29.8
2017-05-24T08:20:33.144Z,29.8
2017-05-24T08:21:39.011Z,29.8
2017-05-24T08:22:32.381Z,29.9
2017-05-24T08:23:38.884Z,29.9
2017-05-24T08:24:35.516Z,29.9
2017-05-24T08:25:35.352Z,29.9
2017-05-24T08:26:37.952Z,29.9
2017-05-24T08:27:38.204Z,29.9
2017-05-24T08:28:33.678Z,29.9
2017-05-24T08:29:33.598Z,29.9
2017-05-24T08:30:34.105Z,29.9
2017-05-24T08:31:35.347Z,30
2017-05-24T08:32:36.381Z,30
2017-05-24T08:33:33.362Z,30
2017-05-24T08:34:32.127Z,30
2017-05-24T08:35:36.316Z,29.9
2017-05-24T08:36:32.311Z,29.9
2017-05-24T08:37:37.047Z,30
2017-05-24T08:38:31.715Z,30
2017-05-24T08:39:32.512Z,30
2017-05-24T08:40:33.017Z,30
2017-05-24T08:41:33.604Z,29.9
2017-05-24T08:42:33.586Z,30
2017-05-24T08:43:37.827Z,30
2017-05-24T08:44:38.494Z,30.1
2017-05-24T08:45:37.137Z,30.2
2017-05-24T08:46:34.004Z,30.2
2017-05-24T08:47:36.476Z,30.3
2017-05-24T08:48:35.014Z,30.3
2017-05-24T08:49:33.892Z,30.3
2017-05-24T08:50:36.316Z,30.4
2017-05-24T08:51:33.531Z,30.4
2017-05-24T08:52:31.570Z,30.2
2017-05-24T08:53:34.712Z,30.2
2017-05-24T08:54:35.124Z,30.2
2017-05-24T08:55:34.384Z,30.3
2017-05-24T08:56:37.100Z,30.3
2017-05-24T08:57:37.598Z,30.3
2017-05-24T08:58:33.730Z,30.2
2017-05-24T08:59:37.469Z,30.2
2017-05-24T09:00:35.656Z,30.2
2017-05-24T09:01:33.866Z,30.3
2017-05-24T09:02:34.922Z,30.3
2017-05-24T09:03:36.041Z,30.2
2017-05-24T09:04:35.555Z,30.2
2017-05-24T09:05:32.989Z,30.2
2017-05-24T09:06:35.901Z,30.2
2017-05-24T09:07:35.855Z,30
2017-05-24T09:08:34.307Z,30.1
2017-05-24T09:09:35.784Z,30.1
2017-05-24T09:10:33.969Z,30
2017-05-24T09:11:36.174Z,30
2017-05-24T09:12:33.036Z,30
2017-05-24T09:13:34.525Z,29.9
2017-05-24T09:14:32.443Z,30
2017-05-24T09:15:32.754Z,29.9
2017-05-24T09:16:33.291Z,29.9
2017-05-24T09:17:36.028Z,29.9
2017-05-24T09:18:32.075Z,29.7
2017-05-24T09:19:37.985Z,29.6
2017-05-24T09:20:34.048Z,29.6
2017-05-24T09:21:34.512Z,29.6
2017-05-24T09:22:34.146Z,29.6
2017-05-24T09:23:35.276Z,29.4
2017-05-24T09:24:32.898Z,29.4
2017-05-24T09:25:35.556Z,29.4
2017-05-24T09:26:34.381Z,29.5
2017-05-24T09:27:34.759Z,29.5
2017-05-24T09:28:35.296Z,29.5
2017-05-24T09:29:32.596Z,29.6
2017-05-24T09:30:33.870Z,29.6
2017-05-24T09:31:37.697Z,29.5
2017-05-24T09:32:35.184Z,29.5
2017-05-24T09:33:34.890Z,29.4
2017-05-24T09:34:33.338Z,29.4
2017-05-24T09:35:34.501Z,29.4
2017-05-24T09:36:34.136Z,29.4
2017-05-24T09:37:34.609Z,29.4
2017-05-24T09:38:34.705Z,29.4
2017-05-24T09:39:34.799Z,29.4
2017-05-24T09:40:37.188Z,29.4
2017-05-24T09:41:33.164Z,29.4
2017-05-24T09:42:34.273Z,29.3
2017-05-24T09:43:35.018Z,29.3
2017-05-24T09:44:34.228Z,29.2
2017-05-24T09:45:34.318Z,29.3
2017-05-24T09:46:35.197Z,29.3
2017-05-24T09:47:34.355Z,29.4
2017-05-24T09:48:34.431Z,29.4
2017-05-24T09:49:35.398Z,29.4
2017-05-24T09:50:34.667Z,29.3
2017-05-24T09:51:33.534Z,29.3
2017-05-24T09:52:35.556Z,29.4
2017-05-24T09:53:36.648Z,29.3
2017-05-24T09:54:44.540Z,29.3
2017-05-24T09:55:33.812Z,29.4
2017-05-24T09:56:35.581Z,29.4
2017-05-24T09:57:35.813Z,29.2
2017-05-24T09:58:36.255Z,29.1
2017-05-24T09:59:34.452Z,29.1
2017-05-24T10:00:33.935Z,29.2
2017-05-24T10:01:35.678Z,29.3
2017-05-24T10:02:36.868Z,29.3
2017-05-24T10:03:36.266Z,29.3
2017-05-24T10:04:37.181Z,29.4
2017-05-24T10:05:38.301Z,29.5
2017-05-24T10:06:38.240Z,29.5
2017-05-24T10:07:34.495Z,29.5
2017-05-24T10:08:36.014Z,29.5
2017-05-24T10:09:37.108Z,29.5
2017-05-24T10:10:36.222Z,29.6
2017-05-24T10:11:35.840Z,29.7
2017-05-24T10:12:35.703Z,29.7
2017-05-24T10:13:37.442Z,29.8
2017-05-24T10:14:36.461Z,29.8
2017-05-24T10:15:35.920Z,29.8
2017-05-24T10:16:36.029Z,29.9
2017-05-24T10:17:36.077Z,30
2017-05-24T10:18:36.450Z,30
2017-05-24T10:19:35.225Z,30.1
2017-05-24T10:20:35.341Z,30.2
2017-05-24T10:21:36.031Z,30.1
2017-05-24T10:22:36.929Z,30.1
2017-05-24T10:23:35.325Z,30.1
2017-05-24T10:24:36.348Z,30.2
2017-05-24T10:25:36.729Z,30.2
2017-05-24T10:26:39.505Z,30.3
2017-05-24T10:27:37.790Z,30.4
2017-05-24T10:28:36.338Z,30.5
2017-05-24T10:29:37.548Z,30.6
2017-05-24T10:30:37.628Z,30.7
2017-05-24T10:31:35.825Z,30.8
2017-05-24T10:32:37.514Z,30.9
2017-05-24T10:33:36.742Z,31
2017-05-24T10:34:35.972Z,31.1
2017-05-24T10:35:36.966Z,31.3
2017-05-24T10:36:39.749Z,31.3
2017-05-24T10:37:36.813Z,31.3
2017-05-24T10:38:36.739Z,31.3
2017-05-24T10:39:37.482Z,31.4
2017-05-24T10:40:37.110Z,31.5
2017-05-24T10:41:40.120Z,31.5
2017-05-24T10:42:38.981Z,31.7
2017-05-24T10:43:38.768Z,31.7
2017-05-24T10:44:40.113Z,31.7
2017-05-24T10:45:37.917Z,31.8
2017-05-24T10:46:38.706Z,31.8
2017-05-24T10:47:39.084Z,32
2017-05-24T10:48:42.054Z,32.1
2017-05-24T10:49:39.268Z,32.2
2017-05-24T10:50:41.504Z,32.3
2017-05-24T10:51:37.778Z,32.4
2017-05-24T10:52:42.127Z,32.4
2017-05-24T10:53:42.281Z,32.4
2017-05-24T10:54:39.077Z,32.5
2017-05-24T10:55:41.236Z,32.6
2017-05-24T10:56:38.293Z,32.7
2017-05-24T10:57:39.618Z,32.8
2017-05-24T10:58:38.704Z,32.8
2017-05-24T10:59:40.841Z,32.9
2017-05-24T11:00:40.199Z,32.9
2017-05-24T11:01:38.963Z,32.8
2017-05-24T11:02:38.265Z,32.8
2017-05-24T11:03:38.134Z,32.9
2017-05-24T11:04:38.119Z,33
2017-05-24T11:05:38.641Z,33.1
2017-05-24T11:06:38.682Z,33.1
2017-05-24T11:07:40.666Z,33.1
2017-05-24T11:08:40.051Z,33
2017-05-24T11:09:37.883Z,32.9
2017-05-24T11:10:39.719Z,32.8
2017-05-24T11:11:38.918Z,32.7
2017-05-24T11:12:40.738Z,32.6
2017-05-24T11:13:40.815Z,32.6
2017-05-24T11:14:41.304Z,32.4
2017-05-24T11:15:40.934Z,32.3
2017-05-24T11:16:39.710Z,32.2
2017-05-24T11:17:40.619Z,32.2
2017-05-24T11:18:39.500Z,32.1
2017-05-24T11:19:39.148Z,32
2017-05-24T11:20:40.822Z,31.9
2017-05-24T11:21:40.654Z,31.9
2017-05-24T11:22:38.587Z,31.9
2017-05-24T11:23:39.765Z,31.8
2017-05-24T11:24:39.665Z,31.8
2017-05-24T11:25:38.674Z,31.7
2017-05-24T11:26:39.974Z,31.7
2017-05-24T11:27:39.922Z,31.6
2017-05-24T11:28:39.991Z,31.6
2017-05-24T11:29:40.063Z,31.6
2017-05-24T11:30:40.626Z,31.5
2017-05-24T11:31:39.052Z,31.5
2017-05-24T11:32:40.045Z,31.5
2017-05-24T11:33:39.766Z,31.5
2017-05-24T11:34:39.417Z,31.5
2017-05-24T11:35:40.009Z,31.5
2017-05-24T11:36:39.862Z,31.4
2017-05-24T11:37:41.035Z,31.4
2017-05-24T11:38:40.248Z,31.4
2017-05-24T11:39:39.240Z,31.4
2017-05-24T11:40:39.260Z,31.3
2017-05-24T11:41:40.477Z,31.3
2017-05-24T11:42:40.505Z,31.3
2017-05-24T11:43:40.554Z,31.3
2017-05-24T11:44:40.684Z,31.3
2017-05-24T11:45:39.929Z,31.3
2017-05-24T11:46:42.964Z,31.4
2017-05-24T11:47:40.904Z,31.5
2017-05-24T11:48:43.118Z,31.6
2017-05-24T11:49:40.515Z,31.8
2017-05-24T11:50:39.836Z,31.9
2017-05-24T11:51:40.447Z,32
2017-05-24T11:52:41.081Z,32.1
2017-05-24T11:53:40.686Z,32.2
2017-05-24T11:54:42.277Z,32.3
2017-05-24T11:55:40.187Z,32.3
2017-05-24T11:56:41.182Z,32.4
2017-05-24T11:57:41.899Z,32.4
2017-05-24T11:58:43.049Z,32.5
2017-05-24T11:59:41.841Z,32.5
2017-05-24T12:00:41.524Z,32.5
2017-05-24T12:01:42.231Z,32.6
2017-05-24T12:02:41.566Z,32.6
2017-05-24T12:03:41.441Z,32.6
2017-05-24T12:04:40.549Z,32.6
2017-05-24T12:05:41.578Z,32.7
2017-05-24T12:06:41.149Z,32.7
2017-05-24T12:07:41.394Z,32.7
2017-05-24T12:08:41.112Z,32.7
2017-05-24T12:09:41.350Z,32.7
2017-05-24T12:10:42.106Z,32.6
2017-05-24T12:11:41.940Z,32.6
2017-05-24T12:12:42.933Z,32.7
2017-05-24T12:13:40.864Z,32.7
2017-05-24T12:14:41.989Z,32.6
2017-05-24T12:15:41.548Z,32.6
2017-05-24T12:16:42.462Z,32.6
2017-05-24T12:17:43.364Z,32.6
2017-05-24T12:18:44.748Z,32.6
2017-05-24T12:19:43.074Z,32.6
2017-05-24T12:20:42.281Z,32.6
2017-05-24T12:21:41.856Z,32.6
2017-05-24T12:22:42.968Z,32.6
2017-05-24T12:23:42.785Z,32.6
2017-05-24T12:24:44.946Z,32.6
2017-05-24T12:25:41.651Z,32.5
2017-05-24T12:26:41.511Z,32.5
2017-05-24T12:27:43.723Z,32.5
2017-05-24T12:28:41.664Z,32.5
2017-05-24T12:29:43.531Z,32.6
2017-05-24T12:30:41.776Z,32.6
2017-05-24T12:31:44.822Z,32.6
2017-05-24T12:32:42.472Z,32.7
2017-05-24T12:33:42.921Z,32.6
2017-05-24T12:34:42.357Z,32.6
2017-05-24T12:35:42.716Z,32.6
2017-05-24T12:36:42.603Z,32.7
2017-05-24T12:37:42.072Z,32.7
2017-05-24T12:38:42.199Z,32.6
2017-05-24T12:39:44.457Z,32.6
2017-05-24T12:40:44.584Z,32.7
2017-05-24T12:41:42.139Z,32.7
2017-05-24T12:42:44.779Z,32.8
2017-05-24T12:43:43.533Z,32.8
2017-05-24T12:44:44.335Z,32.7
2017-05-24T12:45:44.153Z,32.7
2017-05-24T12:46:45.107Z,32.7
2017-05-24T12:47:43.022Z,32.6
2017-05-24T12:48:42.917Z,32.6
2017-05-24T12:49:44.342Z,32.6
2017-05-24T12:50:46.168Z,32.5
2017-05-24T12:51:43.533Z,32.5
2017-05-24T12:52:44.239Z,32.5
2017-05-24T12:53:43.193Z,32.4
2017-05-24T12:54:43.273Z,32.5
2017-05-24T12:55:43.879Z,32.5
2017-05-24T12:56:43.723Z,32.5
2017-05-24T12:57:47.562Z,32.5
2017-05-24T12:58:44.417Z,32.4
2017-05-24T12:59:43.960Z,32.5
2017-05-24T13:00:45.081Z,32.4
2017-05-24T13:01:46.909Z,32.4
2017-05-24T13:02:45.180Z,32.4
2017-05-24T13:03:44.607Z,32.4
2017-05-24T13:04:45.222Z,32.3
2017-05-24T13:05:43.670Z,32.4
2017-05-24T13:06:42.964Z,32.4
2017-05-24T13:07:42.983Z,32.3
2017-05-24T13:08:44.180Z,32.3
2017-05-24T13:09:43.797Z,32.3
2017-05-24T13:10:43.272Z,32.3
2017-05-24T13:11:43.154Z,32.3
2017-05-24T13:12:43.875Z,32.3
2017-05-24T13:13:44.803Z,32.3
2017-05-24T13:14:43.371Z,32.2
2017-05-24T13:15:45.075Z,32.1
2017-05-24T13:16:47.341Z,32
2017-05-24T13:17:44.701Z,32
2017-05-24T13:18:44.081Z,31.9
2017-05-24T13:19:43.555Z,31.9
2017-05-24T13:20:44.782Z,31.8
2017-05-24T13:21:44.857Z,31.7
2017-05-24T13:22:44.558Z,31.7
2017-05-24T13:23:44.530Z,31.6
2017-05-24T13:24:44.976Z,31.6
2017-05-24T13:25:45.611Z,31.6